Time;durP1;ratioP1;P1;durP2;ratioP2;P2;SDS_P1;SDS_P2;PMS_P1;PMS_P2;Temp;Humidity;BMP_temperature;BMP_pressure;BME280_temperature;BME280_humidity;BME280_pressure;Samples;Min_cycle;Max_cycle;Signal;HPM_P1;HPM_P2
2023/04/01 00:00:18;;;;;;;13.15;9.15;;;9.90;99.90;;;;;;5054895;28;20091;-75
2023/04/01 00:02:44;;;;;;;11.23;8.85;;;10.00;99.90;;;;;;5060479;28;20101;-75
2023/04/01 00:05:10;;;;;;;13.63;9.07;;;10.00;99.90;;;;;;5066847;28;20053;-75
2023/04/01 00:07:37;;;;;;;11.02;8.75;;;10.00;99.90;;;;;;5063666;28;20068;-76
2023/04/01 00:10:04;;;;;;;11.50;9.15;;;9.90;99.90;;;;;;5060194;28;20048;-75
2023/04/01 00:12:30;;;;;;;10.32;8.50;;;10.00;99.90;;;;;;5046305;28;20048;-75
2023/04/01 00:14:56;;;;;;;11.20;8.38;;;10.00;99.90;;;;;;5063314;28;20048;-75
2023/04/01 00:17:22;;;;;;;12.52;8.60;;;10.00;99.90;;;;;;5057535;28;20131;-75
2023/04/01 00:19:49;;;;;;;12.65;9.57;;;10.00;99.90;;;;;;5063811;28;20136;-75
2023/04/01 00:22:15;;;;;;;17.00;8.40;;;10.00;99.90;;;;;;5066705;28;20041;-75
2023/04/01 00:24:42;;;;;;;12.00;8.25;;;10.00;99.90;;;;;;5063351;28;20095;-75
2023/04/01 00:27:08;;;;;;;10.20;7.85;;;10.00;99.90;;;;;;5059679;28;20047;-75
2023/04/01 00:29:34;;;;;;;12.63;8.57;;;9.90;99.90;;;;;;5064206;28;20127;-75
2023/04/01 00:32:00;;;;;;;10.23;7.72;;;9.90;99.90;;;;;;5066527;28;20045;-75
2023/04/01 00:34:26;;;;;;;11.40;8.13;;;10.00;99.90;;;;;;5065423;28;20044;-75
2023/04/01 00:36:52;;;;;;;10.02;8.10;;;9.90;99.90;;;;;;5062016;28;20113;-75
2023/04/01 00:39:19;;;;;;;10.05;8.35;;;9.90;99.90;;;;;;5060636;28;20041;-74
2023/04/01 00:41:45;;;;;;;13.93;9.45;;;9.90;99.90;;;;;;5048770;28;20049;-75
2023/04/01 00:44:27;;;;;;;11.93;8.75;;;9.90;99.90;;;;;;5053061;28;20432;-75
2023/04/01 00:46:52;;;;;;;14.18;8.93;;;9.90;99.90;;;;;;5061090;28;20056;-75
2023/04/01 00:49:22;;;;;;;20.33;9.80;;;9.80;99.90;;;;;;5054188;28;20037;-75
2023/04/01 00:51:51;;;;;;;13.00;9.32;;;9.90;99.90;;;;;;5057178;28;20045;-75
2023/04/01 00:54:20;;;;;;;16.92;10.30;;;9.90;99.90;;;;;;5069527;28;20084;-75
2023/04/01 00:56:51;;;;;;;14.45;9.57;;;9.90;99.90;;;;;;5060195;28;20036;-76
2023/04/01 00:59:26;;;;;;;16.00;9.57;;;9.90;99.90;;;;;;5060196;28;20144;-75
2023/04/01 01:01:52;;;;;;;14.45;9.38;;;9.90;99.90;;;;;;5067822;28;20098;-76
2023/04/01 01:04:29;;;;;;;15.27;9.68;;;9.80;99.90;;;;;;5068449;28;20056;-75
2023/04/01 01:07:33;;;;;;;17.10;10.60;;;9.80;99.90;;;;;;5061712;28;20044;-76
2023/04/01 01:10:11;;;;;;;12.02;8.93;;;9.80;99.90;;;;;;5028514;28;20044;-76
2023/04/01 01:13:01;;;;;;;11.50;8.05;;;9.80;99.90;;;;;;5032361;28;20067;-76
2023/04/01 01:15:33;;;;;;;15.15;9.88;;;9.80;99.90;;;;;;5052273;28;20052;-76
2023/04/01 01:18:20;;;;;;;13.20;10.05;;;9.80;99.90;;;;;;5060845;28;20037;-76
2023/04/01 01:21:04;;;;;;;11.07;9.88;;;9.80;99.90;;;;;;5069310;28;20055;-76
2023/04/01 01:23:42;;;;;;;11.20;8.68;;;9.70;99.90;;;;;;5068200;28;20529;-76
2023/04/01 01:26:42;;;;;;;14.05;9.18;;;9.80;99.90;;;;;;5063752;28;20044;-75
2023/04/01 01:29:23;;;;;;;15.27;9.07;;;9.70;99.90;;;;;;5059708;28;20048;-75
2023/04/01 01:32:25;;;;;;;14.52;9.48;;;9.80;99.90;;;;;;5069125;28;20067;-75
2023/04/01 01:35:16;;;;;;;10.63;8.40;;;9.70;99.90;;;;;;5059405;28;20676;-75
2023/04/01 01:37:43;;;;;;;18.60;10.05;;;9.70;99.90;;;;;;5059457;28;20126;-75
2023/04/01 01:40:11;;;;;;;13.40;9.32;;;9.70;99.90;;;;;;5064437;28;20083;-76
2023/04/01 01:42:40;;;;;;;13.00;9.35;;;9.70;99.90;;;;;;5061147;28;20052;-75
2023/04/01 01:45:08;;;;;;;11.15;8.80;;;9.70;99.90;;;;;;5069981;28;20059;-76
2023/04/01 01:47:35;;;;;;;;;;;9.80;99.90;;;;;;5061826;28;20044;-75
2023/04/01 01:50:03;;;;;;;11.32;8.07;;;9.70;99.90;;;;;;5057842;28;19979;-75
2023/04/01 01:52:29;;;;;;;10.70;8.25;;;9.70;99.90;;;;;;5060292;28;20041;-76
2023/04/01 01:54:57;;;;;;;14.80;8.57;;;9.70;99.90;;;;;;5059424;28;20417;-75
2023/04/01 01:57:26;;;;;;;;;;;9.70;99.90;;;;;;5066524;28;20493;-75
2023/04/01 01:59:56;;;;;;;10.20;7.72;;;9.70;99.90;;;;;;5064554;28;19924;-76
2023/04/01 02:02:25;;;;;;;9.02;6.95;;;9.70;99.90;;;;;;5067180;28;20045;-76
2023/04/01 02:04:52;;;;;;;9.60;5.65;;;9.60;99.90;;;;;;5066553;28;20055;-75
2023/04/01 02:07:28;;;;;;;6.82;5.30;;;9.70;99.90;;;;;;5068266;28;20405;-76
2023/04/01 02:09:54;;;;;;;13.07;6.45;;;9.70;99.90;;;;;;5062473;28;20052;-75
2023/04/01 02:12:22;;;;;;;7.30;5.60;;;9.60;99.90;;;;;;5063070;28;20116;-76
2023/04/01 02:14:57;;;;;;;;;;;9.60;99.90;;;;;;5065523;28;20049;-76
2023/04/01 02:17:31;;;;;;;8.57;6.20;;;9.60;99.90;;;;;;5060212;28;19965;-76
2023/04/01 02:20:00;;;;;;;8.38;6.75;;;9.60;99.90;;;;;;5067952;28;20066;-76
2023/04/01 02:22:31;;;;;;;12.00;6.00;;;9.60;99.90;;;;;;5065553;28;20101;-76
2023/04/01 02:25:09;;;;;;;11.82;5.82;;;9.50;99.90;;;;;;5056677;28;20048;-76
2023/04/01 02:27:35;;;;;;;15.02;6.65;;;9.60;99.90;;;;;;5063649;28;20037;-75
2023/04/01 02:30:01;;;;;;;8.45;6.25;;;9.50;99.90;;;;;;5067844;28;20048;-76
2023/04/01 02:32:28;;;;;;;7.22;5.28;;;9.60;99.90;;;;;;5063469;28;20044;-75
2023/04/01 02:34:55;;;;;;;7.97;5.55;;;9.50;99.90;;;;;;5063409;28;20113;-75
2023/04/01 02:37:22;;;;;;;9.32;6.32;;;9.50;99.90;;;;;;5056544;28;20080;-75
2023/04/01 02:39:48;;;;;;;8.18;6.30;;;9.50;99.90;;;;;;5064410;28;20049;-75
2023/04/01 02:42:14;;;;;;;12.73;7.15;;;9.50;99.90;;;;;;5064817;28;20125;-75
2023/04/01 02:44:41;;;;;;;12.57;8.00;;;9.50;99.90;;;;;;5066441;28;20087;-75
2023/04/01 02:47:07;;;;;;;13.68;9.35;;;9.50;99.90;;;;;;5059458;28;20044;-76
2023/04/01 02:49:32;;;;;;;13.18;8.68;;;9.50;99.90;;;;;;5062063;28;20493;-76
2023/04/01 02:51:58;;;;;;;14.75;8.98;;;9.50;99.90;;;;;;5063568;28;20468;-76
2023/04/01 02:54:25;;;;;;;14.95;9.75;;;9.50;99.90;;;;;;5061499;28;20044;-76
2023/04/01 02:56:50;;;;;;;15.07;9.50;;;9.70;99.90;;;;;;5065417;28;20102;-76
2023/04/01 02:59:16;;;;;;;16.20;11.18;;;9.50;99.90;;;;;;5068823;28;20040;-76
2023/04/01 03:01:41;;;;;;;16.25;10.93;;;9.50;99.90;;;;;;5068399;28;20056;-76
2023/04/01 03:04:07;;;;;;;15.88;10.90;;;9.50;99.90;;;;;;5060316;28;20064;-76
2023/04/01 03:06:33;;;;;;;19.73;10.82;;;9.60;99.90;;;;;;5066397;28;20052;-76
2023/04/01 03:08:59;;;;;;;18.38;10.43;;;9.60;99.90;;;;;;5048379;28;20075;-76
2023/04/01 03:11:26;;;;;;;16.70;11.02;;;9.60;99.90;;;;;;5066937;28;20090;-76
2023/04/01 03:13:52;;;;;;;19.35;11.10;;;9.60;99.90;;;;;;5067672;28;20056;-76
2023/04/01 03:16:18;;;;;;;14.65;11.13;;;9.50;99.90;;;;;;5067282;28;20048;-76
2023/04/01 03:18:44;;;;;;;16.92;10.27;;;9.60;99.90;;;;;;5057112;28;20098;-76
2023/04/01 03:21:18;;;;;;;20.50;10.93;;;9.60;99.90;;;;;;5062246;28;20520;-76
2023/04/01 03:23:44;;;;;;;18.25;10.05;;;9.60;99.90;;;;;;5062747;28;20105;-76
2023/04/01 03:26:09;;;;;;;17.85;10.63;;;9.60;99.90;;;;;;5055908;28;20045;-76
2023/04/01 03:28:36;;;;;;;15.20;9.75;;;9.60;99.90;;;;;;5061328;28;20052;-76
2023/04/01 03:31:01;;;;;;;19.50;11.57;;;9.50;99.90;;;;;;5066127;28;20068;-76
2023/04/01 03:33:27;;;;;;;12.60;9.43;;;9.60;99.90;;;;;;5067811;28;20076;-76
2023/04/01 03:35:53;;;;;;;19.58;10.30;;;9.60;99.90;;;;;;5063303;28;20099;-75
2023/04/01 03:38:18;;;;;;;14.60;10.70;;;9.50;99.90;;;;;;5065974;28;20402;-76
2023/04/01 03:40:45;;;;;;;19.20;11.52;;;9.60;99.90;;;;;;5063070;28;20048;-76
2023/04/01 03:43:11;;;;;;;20.17;13.43;;;9.60;99.90;;;;;;5058571;28;20037;-76
2023/04/01 03:45:46;;;;;;;18.85;11.73;;;9.50;99.90;;;;;;5050367;28;20045;-76
2023/04/01 03:48:13;;;;;;;29.33;14.32;;;9.60;99.90;;;;;;5059483;28;20503;-76
2023/04/01 03:50:39;;;;;;;22.05;14.90;;;9.60;99.90;;;;;;5058580;28;20052;-76
2023/04/01 03:53:05;;;;;;;19.50;13.73;;;9.50;99.90;;;;;;5065895;28;20056;-77
2023/04/01 03:55:31;;;;;;;21.17;13.80;;;9.60;99.90;;;;;;5060328;28;20076;-76
2023/04/01 03:57:57;;;;;;;25.30;15.25;;;9.50;99.90;;;;;;5064547;28;20068;-77
2023/04/01 04:00:22;;;;;;;23.73;15.27;;;9.50;99.90;;;;;;5062501;28;20674;-76
2023/04/01 04:02:48;;;;;;;24.90;16.10;;;9.50;99.90;;;;;;5057595;28;20057;-76
2023/04/01 04:05:14;;;;;;;26.05;16.30;;;9.50;99.90;;;;;;5065472;28;20051;-76
2023/04/01 04:07:40;;;;;;;28.83;15.07;;;9.50;99.90;;;;;;5056747;28;20064;-76
2023/04/01 04:10:06;;;;;;;23.77;16.50;;;9.50;99.90;;;;;;5063120;28;20087;-76
2023/04/01 04:12:32;;;;;;;24.55;16.00;;;9.50;99.90;;;;;;5060018;28;20528;-76
2023/04/01 04:14:58;;;;;;;32.17;17.42;;;9.50;99.90;;;;;;5065363;28;20048;-76
2023/04/01 04:17:24;;;;;;;27.20;16.42;;;9.50;99.90;;;;;;5064265;28;20049;-76
2023/04/01 04:19:49;;;;;;;23.60;15.40;;;9.50;99.90;;;;;;5065506;28;20071;-76
2023/04/01 04:22:15;;;;;;;25.77;17.35;;;9.50;99.90;;;;;;5057485;28;20041;-76
2023/04/01 04:24:40;;;;;;;27.15;17.23;;;9.50;99.90;;;;;;5062167;28;20052;-76
2023/04/01 04:27:06;;;;;;;28.60;18.35;;;9.50;99.90;;;;;;5062054;28;20379;-76
2023/04/01 04:29:32;;;;;;;27.55;16.63;;;9.50;99.90;;;;;;5063712;28;20044;-76
2023/04/01 04:31:57;;;;;;;32.60;19.10;;;9.50;99.90;;;;;;5056493;28;20067;-77
2023/04/01 04:34:23;;;;;;;31.15;17.15;;;9.50;99.90;;;;;;5065971;28;20548;-77
2023/04/01 04:36:49;;;;;;;28.33;17.42;;;9.50;99.90;;;;;;5064685;28;20036;-77
2023/04/01 04:39:15;;;;;;;25.02;17.42;;;9.50;99.90;;;;;;5055611;28;20052;-77
2023/04/01 04:41:41;;;;;;;27.00;17.65;;;9.50;99.90;;;;;;5062306;28;20063;-76
2023/04/01 04:44:07;;;;;;;32.17;19.80;;;9.50;99.90;;;;;;5060404;28;20041;-76
2023/04/01 04:46:33;;;;;;;32.92;20.13;;;9.50;99.90;;;;;;5067423;28;20493;-76
2023/04/01 04:48:58;;;;;;;34.00;20.00;;;9.50;99.90;;;;;;5065283;28;20403;-76
2023/04/01 04:51:24;;;;;;;29.27;18.08;;;9.40;99.90;;;;;;5056766;28;20413;-77
2023/04/01 04:53:50;;;;;;;31.25;18.60;;;9.50;99.90;;;;;;5058416;28;20082;-76
2023/04/01 04:56:21;;;;;;;29.05;19.05;;;9.50;99.90;;;;;;5063745;28;20218;-76
2023/04/01 04:58:47;;;;;;;34.88;20.77;;;9.40;99.90;;;;;;5060155;28;20045;-76
2023/04/01 05:01:16;;;;;;;33.25;20.65;;;9.50;99.90;;;;;;5066812;28;20052;-76
2023/04/01 05:03:42;;;;;;;35.20;21.52;;;9.50;99.90;;;;;;5066732;28;20433;-76
2023/04/01 05:06:09;;;;;;;36.60;21.45;;;9.50;99.90;;;;;;5062451;28;20044;-77
2023/04/01 05:08:36;;;;;;;35.60;20.27;;;9.60;99.90;;;;;;5064577;28;20049;-76
2023/04/01 05:11:02;;;;;;;33.20;22.02;;;9.50;99.90;;;;;;5064396;28;20071;-77
2023/04/01 05:13:28;;;;;;;30.55;18.60;;;9.50;99.90;;;;;;5061752;28;20500;-77
2023/04/01 05:15:54;;;;;;;27.02;17.75;;;9.50;99.90;;;;;;5060328;28;20060;-76
2023/04/01 05:18:21;;;;;;;25.35;16.35;;;9.50;99.90;;;;;;5066875;28;20051;-76
2023/04/01 05:20:52;;;;;;;24.27;16.08;;;9.40;99.90;;;;;;5061439;28;20413;-76
2023/04/01 05:23:18;;;;;;;20.85;14.57;;;9.40;99.90;;;;;;5060211;28;20041;-76
2023/04/01 05:25:45;;;;;;;24.42;14.15;;;9.50;99.90;;;;;;5065639;28;20041;-76
2023/04/01 05:28:11;;;;;;;15.38;11.15;;;9.40;99.90;;;;;;5066103;28;20048;-77
2023/04/01 05:30:39;;;;;;;21.77;12.63;;;9.40;99.90;;;;;;5061235;28;20123;-76
2023/04/01 05:33:04;;;;;;;19.02;12.45;;;9.50;99.90;;;;;;5065679;28;20079;-75
2023/04/01 05:35:30;;;;;;;17.20;10.95;;;9.40;99.90;;;;;;5061828;28;20131;-76
2023/04/01 05:37:56;;;;;;;17.02;11.15;;;9.40;99.90;;;;;;5067916;28;20684;-76
2023/04/01 05:40:21;;;;;;;20.15;12.60;;;9.40;99.90;;;;;;5070594;28;20093;-76
2023/04/01 05:42:47;;;;;;;18.92;12.00;;;9.30;99.90;;;;;;5068904;28;20498;-75
2023/04/01 05:45:15;;;;;;;18.95;13.07;;;9.50;99.90;;;;;;5066805;28;20188;-75
2023/04/01 05:47:42;;;;;;;19.23;13.18;;;9.40;99.90;;;;;;5067167;28;20105;-75
2023/04/01 05:50:10;;;;;;;14.10;9.85;;;9.40;99.90;;;;;;5062118;28;20048;-76
2023/04/01 05:52:36;;;;;;;17.30;10.57;;;9.40;99.90;;;;;;5053076;28;20048;-75
2023/04/01 05:55:03;;;;;;;12.80;8.90;;;9.40;99.90;;;;;;5063057;28;20136;-75
2023/04/01 05:57:29;;;;;;;15.43;9.20;;;9.40;99.90;;;;;;5070381;28;20039;-76
2023/04/01 05:59:54;;;;;;;17.05;10.35;;;9.40;99.90;;;;;;5065436;28;20040;-76
2023/04/01 06:02:20;;;;;;;16.42;11.30;;;9.30;99.90;;;;;;5069441;28;20072;-76
2023/04/01 06:04:46;;;;;;;19.20;12.10;;;9.30;99.90;;;;;;5064593;28;20053;-76
2023/04/01 06:07:14;;;;;;;30.33;14.75;;;9.30;99.90;;;;;;5062541;28;20417;-76
2023/04/01 06:09:41;;;;;;;28.30;14.93;;;9.30;99.90;;;;;;5060931;28;20132;-76
2023/04/01 06:12:25;;;;;;;23.42;14.07;;;9.40;99.90;;;;;;5056925;28;20053;-76
2023/04/01 06:15:07;;;;;;;28.17;16.40;;;9.40;99.90;;;;;;5062793;28;20061;-76
2023/04/01 06:17:52;;;;;;;33.60;16.35;;;9.40;99.90;;;;;;5064602;28;20052;-76
2023/04/01 06:20:21;;;;;;;29.77;17.83;;;9.50;99.90;;;;;;5064607;28;20492;-76
2023/04/01 06:23:22;;;;;;;26.00;15.02;;;9.50;99.90;;;;;;5056926;28;20664;-76
2023/04/01 06:25:59;;;;;;;29.48;17.30;;;9.60;99.90;;;;;;5049431;28;20429;-76
2023/04/01 06:28:55;;;;;;;35.78;17.92;;;9.60;99.90;;;;;;5060816;28;20044;-76
2023/04/01 06:31:49;;;;;;;34.08;18.52;;;9.70;99.90;;;;;;5056499;28;20063;-76
2023/04/01 06:34:14;;;;;;;30.17;16.85;;;9.70;99.90;;;;;;5058382;28;20076;-76
2023/04/01 06:36:54;;;;;;;25.25;16.98;;;9.70;99.90;;;;;;5061848;28;20087;-75
2023/04/01 06:39:35;;;;;;;27.85;16.25;;;9.80;99.90;;;;;;5067945;28;20151;-76
2023/04/01 06:42:22;;;;;;;23.67;16.13;;;9.70;99.90;;;;;;5066718;28;20076;-76
2023/04/01 06:45:00;;;;;;;32.30;16.65;;;9.80;99.90;;;;;;5066000;28;20087;-76
2023/04/01 06:48:05;;;;;;;23.42;15.15;;;9.80;99.90;;;;;;5065411;28;20132;-76
2023/04/01 06:50:47;;;;;;;34.10;19.90;;;9.80;99.90;;;;;;5064026;28;20093;-75
2023/04/01 06:53:33;;;;;;;31.38;19.40;;;9.80;99.90;;;;;;5061630;28;20505;-75
2023/04/01 06:56:16;;;;;;;34.15;22.08;;;9.80;99.90;;;;;;5064930;28;20059;-75
2023/04/01 06:58:46;;;;;;;36.75;21.83;;;9.90;99.90;;;;;;5069517;28;20097;-76
2023/04/01 07:01:19;;;;;;;36.17;21.80;;;9.90;99.90;;;;;;5061417;28;20068;-74
2023/04/01 07:03:51;;;;;;;29.73;20.27;;;9.90;99.90;;;;;;5053305;28;20047;-76
2023/04/01 07:06:53;;;;;;;33.90;20.48;;;10.00;99.90;;;;;;5064476;28;20044;-75
2023/04/01 07:09:28;;;;;;;33.53;20.55;;;10.00;99.90;;;;;;5077649;28;20052;-75
2023/04/01 07:12:00;;;;;;;32.85;21.52;;;10.00;99.90;;;;;;5069147;28;20131;-76
2023/04/01 07:14:28;;;;;;;31.02;20.58;;;10.10;99.90;;;;;;5065428;28;20412;-75
2023/04/01 07:17:01;;;;;;;28.63;18.13;;;10.10;99.90;;;;;;5066371;28;20473;-75
2023/04/01 07:19:33;;;;;;;28.25;19.30;;;10.20;99.90;;;;;;5059909;28;20044;-75
2023/04/01 07:22:06;;;;;;;26.45;17.20;;;10.20;99.90;;;;;;5064102;28;20110;-75
2023/04/01 07:24:39;;;;;;;23.60;16.00;;;10.20;99.90;;;;;;5060991;28;20044;-74
2023/04/01 07:27:10;;;;;;;24.40;16.48;;;10.20;99.90;;;;;;5059004;28;20051;-75
2023/04/01 07:29:36;;;;;;;24.65;16.88;;;10.30;99.90;;;;;;5064244;28;20059;-75
2023/04/01 07:32:24;;;;;;;26.73;17.83;;;10.30;99.90;;;;;;5063420;28;20064;-75
2023/04/01 07:35:08;;;;;;;28.17;14.68;;;10.40;99.90;;;;;;5059102;28;20041;-74
2023/04/01 07:37:49;;;;;;;25.75;17.27;;;10.50;99.90;;;;;;5058251;28;20053;-75
2023/04/01 07:40:31;;;;;;;21.13;15.52;;;10.50;99.90;;;;;;5061398;28;20051;-75
2023/04/01 07:43:12;;;;;;;20.00;14.48;;;10.50;99.90;;;;;;5059577;28;20383;-75
2023/04/01 07:45:42;;;;;;;20.50;14.75;;;10.60;99.90;;;;;;5066378;28;20052;-75
2023/04/01 07:48:10;;;;;;;21.35;14.93;;;10.60;99.90;;;;;;5059416;28;20463;-75
2023/04/01 07:50:46;;;;;;;21.10;14.07;;;10.60;99.90;;;;;;5043420;28;20128;-75
2023/04/01 07:53:35;;;;;;;21.75;14.23;;;10.60;99.90;;;;;;5061231;28;20486;-75
2023/04/01 07:56:00;;;;;;;;;;;10.50;99.90;;;;;;5061575;28;20047;-75
2023/04/01 07:58:51;;;;;;;24.30;13.38;;;10.50;99.90;;;;;;5063576;28;19925;-75
2023/04/01 08:01:53;;;;;;;20.23;13.23;;;10.50;99.90;;;;;;5059935;28;20131;-75
2023/04/01 08:04:36;;;;;;;18.88;12.45;;;10.50;99.90;;;;;;5067611;28;20052;-75
2023/04/01 08:07:21;;;;;;;17.98;11.88;;;10.50;99.90;;;;;;5068422;28;20107;-75
2023/04/01 08:10:13;;;;;;;15.32;11.93;;;10.50;99.90;;;;;;5064267;28;20075;-75
2023/04/01 08:12:41;;;;;;;11.02;7.70;;;10.60;99.90;;;;;;5064127;28;20048;-75
2023/04/01 08:15:39;;;;;;;9.45;6.00;;;10.50;99.90;;;;;;5063992;28;20040;-76
2023/04/01 08:18:24;;;;;;;;;;;10.50;99.90;;;;;;5057883;28;20056;-75
2023/04/01 08:20:59;;;;;;;7.80;6.43;;;10.40;99.90;;;;;;5063576;28;19931;-76
2023/04/01 08:23:36;;;;;;;13.98;10.32;;;10.40;99.90;;;;;;5059868;28;20075;-75
2023/04/01 08:26:15;;;;;;;16.85;10.75;;;10.40;99.90;;;;;;5058497;28;20049;-75
2023/04/01 08:28:51;;;;;;;18.92;11.00;;;10.40;99.90;;;;;;5058345;28;20658;-76
2023/04/01 08:31:45;;;;;;;15.48;11.02;;;10.50;99.90;;;;;;5056916;28;20040;-75
2023/04/01 08:34:37;;;;;;;18.63;12.88;;;10.50;99.90;;;;;;5056516;28;20088;-75
2023/04/01 08:37:17;;;;;;;18.50;11.75;;;10.50;99.90;;;;;;5063294;28;20106;-75
2023/04/01 08:39:48;;;;;;;18.27;12.02;;;10.50;99.90;;;;;;5058703;28;20047;-76
2023/04/01 08:42:51;;;;;;;19.42;12.40;;;10.50;99.90;;;;;;5059334;28;20102;-75
2023/04/01 08:45:26;;;;;;;13.48;9.85;;;10.60;99.90;;;;;;5066335;28;20040;-76
2023/04/01 08:48:16;;;;;;;15.77;11.70;;;10.60;99.90;;;;;;5060542;28;20155;-75
2023/04/01 08:51:13;;;;;;;16.58;11.70;;;10.70;99.90;;;;;;5060080;28;20040;-76
2023/04/01 08:53:50;;;;;;;18.52;12.63;;;10.70;99.90;;;;;;5058381;28;20037;-75
2023/04/01 08:56:41;;;;;;;19.17;12.68;;;10.70;99.90;;;;;;5057513;28;20033;-75
2023/04/01 08:59:37;;;;;;;17.65;12.20;;;10.70;99.90;;;;;;5056469;28;20045;-75
2023/04/01 09:02:21;;;;;;;17.27;12.07;;;10.70;99.90;;;;;;5055670;28;20700;-75
2023/04/01 09:05:24;;;;;;;17.58;12.00;;;10.70;99.90;;;;;;5055340;28;20123;-75
2023/04/01 09:07:56;;;;;;;13.30;10.23;;;10.80;99.90;;;;;;5051518;28;20625;-76
2023/04/01 09:10:55;;;;;;;14.88;10.93;;;10.80;99.90;;;;;;5063189;28;20517;-76
2023/04/01 09:13:42;;;;;;;14.85;10.98;;;10.80;99.90;;;;;;5049891;28;20052;-75
2023/04/01 09:16:30;;;;;;;13.70;10.80;;;10.80;99.90;;;;;;5067057;28;20144;-75
2023/04/01 09:19:33;;;;;;;17.25;12.77;;;10.80;99.90;;;;;;5054773;28;20052;-75
2023/04/01 09:22:36;;;;;;;16.75;13.07;;;10.90;99.90;;;;;;5064415;28;20053;-75
2023/04/01 09:25:36;;;;;;;15.50;10.93;;;10.90;99.90;;;;;;5066803;28;20044;-75
2023/04/01 09:28:16;;;;;;;15.57;12.35;;;11.00;99.90;;;;;;5046096;28;20080;-74
2023/04/01 09:31:09;;;;;;;17.63;12.05;;;11.00;99.90;;;;;;5070012;28;20056;-75
2023/04/01 09:33:46;;;;;;;16.20;12.98;;;11.00;99.90;;;;;;5069826;28;20040;-75
2023/04/01 09:36:24;;;;;;;17.55;12.70;;;11.10;99.90;;;;;;5070238;28;20536;-75
2023/04/01 09:38:59;;;;;;;14.15;11.52;;;11.10;99.90;;;;;;5069582;28;20056;-75
2023/04/01 09:41:47;;;;;;;14.75;12.07;;;11.10;99.90;;;;;;5068224;28;20044;-75
2023/04/01 09:44:28;;;;;;;15.95;10.90;;;11.10;99.90;;;;;;5065570;28;20051;-74
2023/04/01 09:47:23;;;;;;;16.80;12.32;;;11.10;99.90;;;;;;5056150;28;20052;-75
2023/04/01 09:50:27;;;;;;;17.67;13.10;;;11.10;99.90;;;;;;5057072;28;20044;-74
2023/04/01 09:53:07;;;;;;;20.60;14.60;;;11.20;99.90;;;;;;5054837;28;20049;-75
2023/04/01 09:55:56;;;;;;;17.55;14.23;;;11.30;99.90;;;;;;5053719;28;20099;-75
2023/04/01 09:59:03;;;;;;;19.90;14.20;;;11.30;99.90;;;;;;5062615;28;20406;-75
2023/04/01 10:01:59;;;;;;;20.10;15.18;;;11.20;99.90;;;;;;5065103;28;20546;-76
2023/04/01 10:05:03;;;;;;;18.48;15.15;;;11.10;99.90;;;;;;5065980;28;20442;-76
2023/04/01 10:07:53;;;;;;;25.05;16.63;;;11.20;99.90;;;;;;5059584;28;20045;-75
2023/04/01 10:10:51;;;;;;;17.05;12.95;;;11.20;99.90;;;;;;5061750;28;20048;-74
2023/04/01 10:13:38;;;;;;;24.80;15.07;;;11.20;99.90;;;;;;5052139;28;20061;-75
2023/04/01 10:16:39;;;;;;;20.70;14.63;;;11.30;99.90;;;;;;5066913;28;20131;-74
2023/04/01 10:19:19;;;;;;;19.35;13.55;;;11.40;99.90;;;;;;5061690;28;20056;-75
2023/04/01 10:22:06;;;;;;;15.65;11.30;;;11.40;99.90;;;;;;5063186;28;20045;-75
2023/04/01 10:24:35;;;;;;;15.80;10.43;;;11.40;99.90;;;;;;5062523;28;20041;-75
2023/04/01 10:27:00;;;;;;;;;;;11.50;99.90;;;;;;5061987;28;20052;-75
2023/04/01 10:29:54;;;;;;;12.35;9.63;;;11.50;99.90;;;;;;5066442;28;20452;-75
2023/04/01 10:32:30;;;;;;;11.20;8.80;;;11.40;99.90;;;;;;5060601;28;20043;-76
2023/04/01 10:35:02;;;;;;;8.18;7.38;;;11.40;99.90;;;;;;5061562;28;20064;-75
2023/04/01 10:37:39;;;;;;;12.35;10.20;;;11.40;99.90;;;;;;5062280;28;20053;-75
2023/04/01 10:40:28;;;;;;;11.20;9.07;;;11.30;99.90;;;;;;5050159;28;20136;-75
2023/04/01 10:43:32;;;;;;;14.38;10.27;;;11.10;99.90;;;;;;5040099;28;20355;-74
2023/04/01 10:46:26;;;;;;;12.05;10.05;;;10.90;99.90;;;;;;5057424;28;20858;-74
2023/04/01 10:49:21;;;;;;;12.82;10.35;;;10.70;99.90;;;;;;5063928;28;20076;-74
2023/04/01 10:51:53;;;;;;;12.93;11.35;;;10.50;99.90;;;;;;5065207;28;20052;-75
2023/04/01 10:54:24;;;;;;;11.40;9.35;;;10.50;99.90;;;;;;5065409;28;20079;-74
2023/04/01 10:56:56;;;;;;;10.15;9.15;;;10.40;99.90;;;;;;5054286;28;20407;-74
2023/04/01 11:00:02;;;;;;;12.40;9.93;;;10.40;99.90;;;;;;5060628;28;20074;-74
2023/04/01 11:02:33;;;;;;;12.48;9.77;;;10.30;99.90;;;;;;5065357;28;20132;-75
2023/04/01 11:05:40;;;;;;;12.52;10.30;;;10.30;99.90;;;;;;5066811;28;20057;-75
2023/04/01 11:08:17;;;;;;;10.80;8.57;;;10.20;99.90;;;;;;5065371;28;20131;-75
2023/04/01 11:11:17;;;;;;;11.97;9.37;;;10.10;99.90;;;;;;5061111;28;20059;-74
2023/04/01 11:14:17;;;;;;;10.18;8.43;;;10.10;99.90;;;;;;5061843;28;20056;-75
2023/04/01 11:16:57;;;;;;;10.57;8.23;;;10.10;99.90;;;;;;5059834;28;20401;-75
2023/04/01 11:19:44;;;;;;;10.25;8.48;;;10.10;99.90;;;;;;5061257;28;20950;-75
2023/04/01 11:22:50;;;;;;;12.20;8.85;;;10.10;99.90;;;;;;5058038;28;20052;-75
2023/04/01 11:25:25;;;;;;;10.43;8.10;;;10.10;99.90;;;;;;5065625;28;20060;-75
2023/04/01 11:28:21;;;;;;;8.63;7.72;;;10.10;99.90;;;;;;5064553;28;20097;-75
2023/04/01 11:31:05;;;;;;;8.35;7.15;;;10.10;99.90;;;;;;5065691;28;20124;-74
2023/04/01 11:33:45;;;;;;;19.17;8.27;;;10.00;99.90;;;;;;5062924;28;20881;-75
2023/04/01 11:36:27;;;;;;;8.85;7.47;;;10.00;99.90;;;;;;5061390;28;20652;-75
2023/04/01 11:39:14;;;;;;;8.38;7.57;;;10.00;99.90;;;;;;5067417;28;20139;-75
2023/04/01 11:42:08;;;;;;;8.73;6.72;;;10.00;99.90;;;;;;5050872;28;20076;-75
2023/04/01 11:44:42;;;;;;;8.55;7.65;;;10.00;99.90;;;;;;5064612;28;20460;-75
2023/04/01 11:47:14;;;;;;;8.60;7.70;;;10.00;99.90;;;;;;5060368;28;20551;-75
2023/04/01 11:49:58;;;;;;;8.02;6.53;;;10.00;99.90;;;;;;5059524;28;20073;-74
2023/04/01 11:52:32;;;;;;;6.15;5.55;;;10.00;99.90;;;;;;5055135;28;20052;-74
2023/04/01 11:55:25;;;;;;;7.70;6.38;;;10.00;99.90;;;;;;5048046;28;20130;-74
2023/04/01 11:58:07;;;;;;;6.88;6.10;;;9.90;99.90;;;;;;5067103;28;20049;-75
2023/04/01 12:01:03;;;;;;;7.30;6.50;;;9.90;99.90;;;;;;5064524;28;20402;-74
2023/04/01 12:03:35;;;;;;;6.38;5.32;;;9.90;99.90;;;;;;5057579;28;20468;-74
2023/04/01 12:06:39;;;;;;;5.88;5.35;;;10.00;99.90;;;;;;5063869;28;20080;-75
2023/04/01 12:09:30;;;;;;;6.78;5.38;;;9.90;99.90;;;;;;5044751;28;20080;-74
2023/04/01 12:12:23;;;;;;;5.90;5.32;;;9.90;99.90;;;;;;5063940;28;20052;-74
2023/04/01 12:15:14;;;;;;;5.85;5.22;;;9.90;99.90;;;;;;5060150;28;20075;-74
2023/04/01 12:18:05;;;;;;;6.60;5.28;;;9.90;99.90;;;;;;5064631;28;20072;-75
2023/04/01 12:20:53;;;;;;;7.28;5.18;;;9.90;99.90;;;;;;5049364;28;20102;-75
2023/04/01 12:23:49;;;;;;;6.13;5.15;;;9.90;99.90;;;;;;5065366;28;20040;-74
2023/04/01 12:26:30;;;;;;;5.50;4.88;;;9.90;99.90;;;;;;5060855;28;20044;-74
2023/04/01 12:29:24;;;;;;;5.55;4.97;;;10.00;99.90;;;;;;5053289;28;20615;-75
2023/04/01 12:32:17;;;;;;;6.78;5.60;;;9.90;99.90;;;;;;5062996;28;20041;-74
2023/04/01 12:35:07;;;;;;;5.35;4.70;;;9.90;99.90;;;;;;5061770;28;20041;-74
2023/04/01 12:38:02;;;;;;;5.68;5.10;;;9.80;99.90;;;;;;5066027;28;20119;-75
2023/04/01 12:40:50;;;;;;;6.50;5.38;;;9.80;99.90;;;;;;5056622;28;20759;-74
2023/04/01 12:44:06;;;;;;;6.13;5.53;;;9.70;99.90;;;;;;5059173;28;20040;-74
2023/04/01 12:46:53;;;;;;;7.20;5.70;;;9.60;99.90;;;;;;5052505;28;20265;-74
2023/04/01 12:49:45;;;;;;;6.93;6.22;;;9.50;99.90;;;;;;5057844;28;20076;-74
2023/04/01 12:52:52;;;;;;;5.63;5.13;;;9.60;99.90;;;;;;5067074;28;20036;-74
2023/04/01 12:55:27;;;;;;;6.93;5.37;;;9.60;99.90;;;;;;5060048;28;20036;-74
2023/04/01 12:58:23;;;;;;;5.65;5.05;;;9.60;99.90;;;;;;5063685;28;20390;-75
2023/04/01 13:01:08;;;;;;;5.90;5.30;;;9.60;99.90;;;;;;5060885;28;20170;-75
2023/04/01 13:03:58;;;;;;;6.22;4.63;;;9.50;99.90;;;;;;5065736;28;20049;-74
2023/04/01 13:06:36;;;;;;;6.07;5.47;;;9.50;99.90;;;;;;5068901;28;20081;-75
2023/04/01 13:09:22;;;;;;;7.40;5.63;;;9.50;99.90;;;;;;5071562;28;20036;-74
2023/04/01 13:12:16;;;;;;;6.05;5.38;;;9.50;99.90;;;;;;5062477;28;20283;-74
2023/04/01 13:14:57;;;;;;;5.57;5.07;;;9.40;99.90;;;;;;5065784;28;20040;-75
2023/04/01 13:17:36;;;;;;;6.07;5.47;;;9.40;99.90;;;;;;5058229;28;20076;-74
2023/04/01 13:20:27;;;;;;;7.18;5.75;;;9.40;99.90;;;;;;5059727;28;20048;-74
2023/04/01 13:23:15;;;;;;;6.18;5.57;;;9.40;99.90;;;;;;5061365;28;20045;-75
2023/04/01 13:25:50;;;;;;;;;;;9.30;99.90;;;;;;5068149;28;20060;-74
2023/04/01 13:28:18;;;;;;;5.72;5.22;;;9.30;99.90;;;;;;5063791;28;19921;-74
2023/04/01 13:31:12;;;;;;;5.57;5.07;;;9.20;99.90;;;;;;5069798;28;20339;-74